createdAt,value
2022-10-11T00:01:28.090Z,2.10
2022-10-11T00:06:30.843Z,2.32
2022-10-11T00:11:33.588Z,2.20
2022-10-11T00:16:38.617Z,2.48
2022-10-11T00:21:41.209Z,2.39
2022-10-11T00:26:46.737Z,2.37
2022-10-11T00:31:49.833Z,2.32
2022-10-11T00:36:52.380Z,2.47
2022-10-11T00:41:55.441Z,2.47
2022-10-11T00:47:05.167Z,2.43
2022-10-11T00:52:33.037Z,2.28
2022-10-11T00:57:41.052Z,2.13
2022-10-11T01:02:43.809Z,1.98
2022-10-11T01:07:48.044Z,1.79
2022-10-11T01:13:22.715Z,1.80
2022-10-11T01:18:27.855Z,1.71
2022-10-11T01:23:57.993Z,1.68
2022-10-11T01:29:19.469Z,1.67
2022-10-11T01:34:43.179Z,1.48
2022-10-11T01:40:03.130Z,1.60
2022-10-11T01:45:09.498Z,1.61
2022-10-11T01:50:34.457Z,1.61
2022-10-11T01:55:54.224Z,1.59
2022-10-11T02:01:34.276Z,1.43
2022-10-11T02:06:55.258Z,1.29
2022-10-11T02:12:02.460Z,1.17
2022-10-11T02:17:11.878Z,1.26
2022-10-11T02:22:23.635Z,1.13
2022-10-11T02:27:33.119Z,1.02
2022-10-11T02:32:39.828Z,0.95
2022-10-11T02:38:05.871Z,0.88
2022-10-11T02:43:18.086Z,0.80
2022-10-11T02:48:21.182Z,0.84
2022-10-11T02:53:26.206Z,0.83
2022-10-11T02:58:28.769Z,0.71
2022-10-11T03:03:31.388Z,0.72
2022-10-11T03:08:34.313Z,0.64
2022-10-11T03:13:37.038Z,0.54
2022-10-11T03:18:39.633Z,0.42
2022-10-11T03:23:42.891Z,0.46
2022-10-11T03:28:45.596Z,0.43
2022-10-11T03:33:48.228Z,0.20
2022-10-11T03:38:50.879Z,0.35
2022-10-11T03:43:53.444Z,0.41
2022-10-11T03:48:56.062Z,0.37
2022-10-11T03:53:58.778Z,0.34
2022-10-11T03:59:02.260Z,0.33
2022-10-11T04:04:05.577Z,0.44
2022-10-11T04:09:08.202Z,0.50
2022-10-11T04:14:10.739Z,0.64
2022-10-11T04:19:13.356Z,0.77
2022-10-11T04:24:16.013Z,0.77
2022-10-11T04:29:18.649Z,0.80
2022-10-11T04:34:21.269Z,0.80
2022-10-11T04:39:23.885Z,0.71
2022-10-11T04:44:26.497Z,0.78
2022-10-11T04:49:29.052Z,0.78
2022-10-11T04:54:32.047Z,1.08
2022-10-11T04:59:34.583Z,1.27
2022-10-11T05:04:37.165Z,1.28
2022-10-11T05:09:39.872Z,1.63
2022-10-11T05:14:42.428Z,1.80
2022-10-11T05:19:44.987Z,1.99
2022-10-11T05:24:47.603Z,2.13
2022-10-11T05:29:50.240Z,2.32
2022-10-11T05:34:52.903Z,2.52
2022-10-11T05:39:55.526Z,2.68
2022-10-11T05:44:58.161Z,2.68
2022-10-11T05:50:00.735Z,2.99
2022-10-11T05:55:03.648Z,3.13
2022-10-11T06:00:06.846Z,3.33
2022-10-11T06:05:14.725Z,3.44
2022-10-11T06:10:17.498Z,3.74
2022-10-11T06:15:20.137Z,3.92
2022-10-11T06:20:22.707Z,4.04
2022-10-11T06:25:25.355Z,4.27
2022-10-11T06:30:28.100Z,4.54
2022-10-11T06:35:30.881Z,4.66
2022-10-11T06:40:33.570Z,4.91
2022-10-11T06:45:36.213Z,5.02
2022-10-11T06:50:58.618Z,5.14
2022-10-11T06:56:13.041Z,5.42
2022-10-11T07:01:19.052Z,5.56
2022-10-11T07:06:27.293Z,5.62
2022-10-11T07:11:29.929Z,5.92
2022-10-11T07:16:32.553Z,6.12
2022-10-11T07:21:35.730Z,6.26
2022-10-11T07:26:39.322Z,6.55
2022-10-11T07:31:43.222Z,6.73
2022-10-11T07:36:46.985Z,6.86
2022-10-11T07:41:49.715Z,7.15
2022-10-11T07:46:53.036Z,7.31
2022-10-11T07:51:55.774Z,7.37
2022-10-11T07:56:58.376Z,7.50
2022-10-11T08:02:01.051Z,7.66
2022-10-11T08:07:04.285Z,7.61
2022-10-11T08:12:07.202Z,7.80
2022-10-11T08:17:09.805Z,7.91
2022-10-11T08:22:12.444Z,7.92
2022-10-11T08:27:15.116Z,8.13
2022-10-11T08:32:17.869Z,8.21
2022-10-11T08:37:20.458Z,8.36
2022-10-11T08:42:26.175Z,8.45
2022-10-11T08:48:02.349Z,8.50
2022-10-11T08:53:25.649Z,8.72
2022-10-11T08:59:01.865Z,8.75
2022-10-11T09:04:06.236Z,8.86
2022-10-11T09:09:27.257Z,9.09
2022-10-11T09:14:54.803Z,9.31
2022-10-11T09:20:06.027Z,9.55
2022-10-11T09:25:26.517Z,9.39
2022-10-11T09:30:29.189Z,9.42
2022-10-11T09:35:38.993Z,9.43
2022-10-11T09:41:00.641Z,9.53
2022-10-11T09:46:03.588Z,9.69
2022-10-11T09:51:29.864Z,9.78
2022-10-11T09:56:40.145Z,9.93
2022-10-11T10:01:42.805Z,10.06
2022-10-11T10:06:45.669Z,9.76
2022-10-11T10:11:48.542Z,9.91
2022-10-11T10:17:02.088Z,9.88
2022-10-11T10:22:04.718Z,10.02
2022-10-11T10:27:23.609Z,10.03
2022-10-11T10:32:32.645Z,10.10
2022-10-11T10:37:53.660Z,10.33
2022-10-11T10:42:56.326Z,10.40
2022-10-11T10:48:20.757Z,10.53
2022-10-11T10:53:42.304Z,10.57
2022-10-11T10:59:14.259Z,10.50
2022-10-11T11:04:36.229Z,10.52
2022-10-11T11:09:49.571Z,10.66
2022-10-11T11:14:57.876Z,10.70
2022-10-11T11:20:21.672Z,10.60
2022-10-11T11:25:30.082Z,10.77
2022-10-11T11:30:49.806Z,10.73
2022-10-11T11:35:56.395Z,10.50
2022-10-11T11:41:06.179Z,10.50
2022-10-11T11:46:15.642Z,10.63
2022-10-11T11:51:30.572Z,10.61
2022-10-11T11:56:45.970Z,10.76
2022-10-11T12:02:11.370Z,10.60
2022-10-11T12:07:18.019Z,10.66
2022-10-11T12:12:34.244Z,10.46
2022-10-11T12:17:57.405Z,10.61
2022-10-11T12:23:02.541Z,10.58
2022-10-11T12:28:42.552Z,10.77
2022-10-11T12:33:45.397Z,10.66
2022-10-11T12:39:19.666Z,10.74
2022-10-11T12:44:28.121Z,10.81
2022-10-11T12:50:06.139Z,10.79
2022-10-11T12:55:46.232Z,10.69
2022-10-11T13:00:51.920Z,10.69
2022-10-11T13:06:01.406Z,10.73
2022-10-11T13:11:11.597Z,10.62
2022-10-11T13:16:27.359Z,10.68
2022-10-11T13:21:29.875Z,10.64
2022-10-11T13:26:32.915Z,10.47
2022-10-11T13:31:35.494Z,10.53
2022-10-11T13:36:38.145Z,10.41
2022-10-11T13:41:42.168Z,10.39
2022-10-11T13:46:44.835Z,10.17
2022-10-11T13:51:58.881Z,10.19
2022-10-11T13:57:02.027Z,10.28
2022-10-11T14:02:04.661Z,10.20
2022-10-11T14:07:33.658Z,10.14
2022-10-11T14:12:40.865Z,9.91
2022-10-11T14:17:45.274Z,9.91
2022-10-11T14:22:54.273Z,9.91
2022-10-11T14:27:57.572Z,9.69
2022-10-11T14:33:01.569Z,9.57
2022-10-11T14:38:04.241Z,9.42
2022-10-11T14:43:06.783Z,9.07
2022-10-11T14:48:09.353Z,8.46
2022-10-11T14:53:12.452Z,8.29
2022-10-11T14:58:19.114Z,8.08
2022-10-11T15:03:21.711Z,7.76
2022-10-11T15:08:24.311Z,7.49
2022-10-11T15:13:26.949Z,7.23
2022-10-11T15:18:29.729Z,7.01
2022-10-11T15:23:32.288Z,6.69
2022-10-11T15:28:35.647Z,6.77
2022-10-11T15:33:39.518Z,6.47
2022-10-11T15:38:42.781Z,6.52
2022-10-11T15:43:46.425Z,6.29
2022-10-11T15:48:50.670Z,6.21
2022-10-11T15:53:53.276Z,5.91
2022-10-11T15:58:56.019Z,6.07
2022-10-11T16:03:58.696Z,5.86
2022-10-11T16:09:01.317Z,5.80
2022-10-11T16:14:04.294Z,5.65
2022-10-11T16:19:06.947Z,5.58
2022-10-11T16:24:09.605Z,5.37
2022-10-11T16:29:12.212Z,5.27
2022-10-11T16:34:14.835Z,5.32
2022-10-11T16:39:18.557Z,5.49
2022-10-11T16:44:25.370Z,5.54
2022-10-11T16:49:28.909Z,5.49
2022-10-11T16:54:32.069Z,5.67
2022-10-11T16:59:35.071Z,5.63
2022-10-11T17:04:37.668Z,5.24
2022-10-11T17:09:44.646Z,4.99
2022-10-11T17:14:48.427Z,5.13
2022-10-11T17:19:51.001Z,5.37
2022-10-11T17:24:53.620Z,5.33
2022-10-11T17:29:56.223Z,5.40
2022-10-11T17:35:02.106Z,5.54
2022-10-11T17:40:06.374Z,5.31
2022-10-11T17:45:09.275Z,5.03
2022-10-11T17:50:12.123Z,4.68
2022-10-11T17:55:15.216Z,4.43
2022-10-11T18:00:17.991Z,4.30
2022-10-11T18:05:20.619Z,4.31
2022-10-11T18:10:23.418Z,3.99
2022-10-11T18:15:26.253Z,4.01
2022-10-11T18:20:29.137Z,3.82
2022-10-11T18:25:34.438Z,3.55
2022-10-11T18:30:45.404Z,3.53
2022-10-11T18:35:48.051Z,3.34
2022-10-11T18:40:50.572Z,3.42
2022-10-11T18:46:03.043Z,3.52
2022-10-11T18:51:09.098Z,3.44
2022-10-11T18:56:13.829Z,3.22
2022-10-11T19:01:22.852Z,3.21
2022-10-11T19:06:28.920Z,3.15
2022-10-11T19:11:32.246Z,3.07
2022-10-11T19:16:40.464Z,3.16
2022-10-11T19:21:43.532Z,3.22
2022-10-11T19:26:47.143Z,3.04
2022-10-11T19:31:58.222Z,2.94
2022-10-11T19:37:01.326Z,2.87
2022-10-11T19:42:05.006Z,2.74
2022-10-11T19:47:07.664Z,2.72
2022-10-11T19:52:10.225Z,2.51
2022-10-11T19:57:12.845Z,2.31
2022-10-11T20:02:15.408Z,2.53
2022-10-11T20:07:18.015Z,2.47
2022-10-11T20:12:20.807Z,2.28
2022-10-11T20:17:43.457Z,2.08
2022-10-11T20:22:46.033Z,2.44
2022-10-11T20:27:49.252Z,2.38
2022-10-11T20:32:52.184Z,2.29
2022-10-11T20:37:54.973Z,2.31
2022-10-11T20:42:57.566Z,2.23
2022-10-11T20:48:00.193Z,2.15
2022-10-11T20:53:02.746Z,2.22
2022-10-11T20:58:05.356Z,2.01
2022-10-11T21:03:08.558Z,1.71
2022-10-11T21:08:11.611Z,1.90
2022-10-11T21:13:14.338Z,1.96
2022-10-11T21:18:17.208Z,2.02
2022-10-11T21:23:19.958Z,1.98
2022-10-11T21:28:22.761Z,1.87
2022-10-11T21:33:27.053Z,1.81
2022-10-11T21:38:29.674Z,1.79
2022-10-11T21:43:33.254Z,1.81
2022-10-11T21:48:36.010Z,1.72
2022-10-11T21:53:38.777Z,1.70
2022-10-11T21:58:41.418Z,1.62
2022-10-11T22:03:44.715Z,1.45
2022-10-11T22:08:49.026Z,1.53
2022-10-11T22:13:51.576Z,1.53
2022-10-11T22:18:54.406Z,1.50
2022-10-11T22:23:57.044Z,1.52
2022-10-11T22:29:00.568Z,1.36
2022-10-11T22:34:03.661Z,1.33
2022-10-11T22:39:07.985Z,1.28
2022-10-11T22:44:15.069Z,1.43
2022-10-11T22:49:17.832Z,1.39
2022-10-11T22:54:20.516Z,1.49
2022-10-11T22:59:23.093Z,1.43
2022-10-11T23:04:25.691Z,1.34
2022-10-11T23:09:29.045Z,1.48
2022-10-11T23:14:31.640Z,1.63
2022-10-11T23:19:34.202Z,1.53
2022-10-11T23:24:36.761Z,1.51
2022-10-11T23:29:41.084Z,1.46
2022-10-11T23:34:43.658Z,1.48
2022-10-11T23:39:46.270Z,1.45
2022-10-11T23:44:48.998Z,1.43
2022-10-11T23:49:52.017Z,1.53
2022-10-11T23:54:55.814Z,1.44
2022-10-11T23:59:58.467Z,1.63
